createdAt,value
2023-05-14T00:02:16.648Z,99186.91
2023-05-14T00:04:43.847Z,99188.85
2023-05-14T00:07:11.394Z,99187.51
2023-05-14T00:09:38.595Z,99182.95
2023-05-14T00:12:06.445Z,99178.58
2023-05-14T00:14:33.660Z,99176.79
2023-05-14T00:17:01.120Z,99175.24
2023-05-14T00:19:28.207Z,99174.52
2023-05-14T00:21:55.528Z,99179.04
2023-05-14T00:24:23.274Z,99175.08
2023-05-14T00:26:50.396Z,99176.46
2023-05-14T00:29:17.939Z,99176.44
2023-05-14T00:31:45.165Z,99176.08
2023-05-14T00:34:12.219Z,99173.64
2023-05-14T00:36:39.452Z,99170.86
2023-05-14T00:39:06.725Z,99169.36
2023-05-14T00:41:33.805Z,99164.40
2023-05-14T00:44:01.450Z,99161.05
2023-05-14T00:46:28.902Z,99158.25
2023-05-14T00:48:57.673Z,99159.79
2023-05-14T00:51:25.150Z,99161.27
2023-05-14T00:53:52.900Z,99158.02
2023-05-14T00:56:20.860Z,99155.77
2023-05-14T00:58:48.545Z,99157.02
2023-05-14T01:01:16.111Z,99156.17
2023-05-14T01:03:44.064Z,99156.47
2023-05-14T01:06:39.613Z,99157.36
2023-05-14T01:09:25.186Z,99160.09
2023-05-14T01:12:16.342Z,99161.02
2023-05-14T01:15:06.509Z,99161.77
2023-05-14T01:17:38.595Z,99157.54
2023-05-14T01:20:06.909Z,99153.66
2023-05-14T01:22:34.404Z,99148.30
2023-05-14T01:25:01.531Z,99149.34
2023-05-14T01:27:31.244Z,99148.27
2023-05-14T01:30:18.974Z,99150.11
2023-05-14T01:32:51.273Z,99148.13
2023-05-14T01:35:22.250Z,99147.85
2023-05-14T01:37:50.503Z,99144.33
2023-05-14T01:40:19.378Z,99143.72
2023-05-14T01:42:47.372Z,99144.15
2023-05-14T01:45:15.965Z,99148.20
2023-05-14T01:47:43.158Z,99153.17
2023-05-14T01:50:10.644Z,99150.19
2023-05-14T01:52:38.126Z,99149.52
2023-05-14T01:55:05.848Z,99147.55
2023-05-14T01:57:33.020Z,99143.91
2023-05-14T02:00:01.771Z,99145.89
2023-05-14T02:02:29.795Z,99140.25
2023-05-14T02:04:56.983Z,99142.88
2023-05-14T02:07:24.404Z,99139.58
2023-05-14T02:09:52.804Z,99133.31
2023-05-14T02:12:20.845Z,99129.40
2023-05-14T02:14:48.212Z,99130.42
2023-05-14T02:17:17.369Z,99129.16
2023-05-14T02:19:44.602Z,99130.20
2023-05-14T02:22:12.704Z,99132.34
2023-05-14T02:24:40.699Z,99133.06
2023-05-14T02:27:08.198Z,99130.07
2023-05-14T02:29:35.252Z,99130.37
2023-05-14T02:32:02.431Z,99128.87
2023-05-14T02:34:29.654Z,99132.13
2023-05-14T02:36:56.927Z,99132.18
2023-05-14T02:39:24.108Z,99135.02
2023-05-14T02:41:51.501Z,99131.73
2023-05-14T02:44:18.618Z,99131.50
2023-05-14T02:46:46.193Z,99130.10
2023-05-14T02:49:13.367Z,99129.58
2023-05-14T02:51:40.522Z,99131.73
2023-05-14T02:54:07.770Z,99126.11
2023-05-14T02:56:35.436Z,99128.66
2023-05-14T02:59:02.989Z,99129.27
2023-05-14T03:01:30.949Z,99128.08
2023-05-14T03:03:58.940Z,99122.22
2023-05-14T03:06:26.062Z,99119.98
2023-05-14T03:08:53.156Z,99119.81
2023-05-14T03:11:20.619Z,99118.29
2023-05-14T03:13:47.799Z,99118.23
2023-05-14T03:16:15.451Z,99117.77
2023-05-14T03:18:42.942Z,99120.80
2023-05-14T03:21:10.165Z,99122.88
2023-05-14T03:23:37.258Z,99124.66
2023-05-14T03:26:04.643Z,99122.73
2023-05-14T03:28:31.738Z,99120.14
2023-05-14T03:31:00.605Z,99119.66
2023-05-14T03:33:28.738Z,99125.17
2023-05-14T03:35:56.185Z,99122.48
2023-05-14T03:38:23.284Z,99118.98
2023-05-14T03:40:50.838Z,99115.98
2023-05-14T03:43:18.061Z,99112.30
2023-05-14T03:45:45.720Z,99109.75
2023-05-14T03:48:13.359Z,99109.05
2023-05-14T03:50:40.667Z,99114.45
2023-05-14T03:53:07.897Z,99116.60
2023-05-14T03:55:36.284Z,99118.99
2023-05-14T03:58:06.908Z,99113.38
2023-05-14T04:00:34.026Z,99111.70
2023-05-14T04:03:02.153Z,99113.14
2023-05-14T04:05:29.370Z,99112.80
2023-05-14T04:07:57.877Z,99110.64
2023-05-14T04:10:25.894Z,99113.77
2023-05-14T04:12:55.236Z,99114.42
2023-05-14T04:15:24.548Z,99112.80
2023-05-14T04:17:53.077Z,99112.01
2023-05-14T04:20:20.382Z,99113.16
2023-05-14T04:22:47.937Z,99111.21
2023-05-14T04:25:15.163Z,99110.36
2023-05-14T04:27:42.352Z,99113.14
2023-05-14T04:30:10.218Z,99110.52
2023-05-14T04:32:37.675Z,99107.40
2023-05-14T04:35:05.280Z,99102.81
2023-05-14T04:37:32.765Z,99107.42
2023-05-14T04:39:59.977Z,99107.30
2023-05-14T04:42:27.094Z,99103.84
2023-05-14T04:44:54.317Z,99107.41
2023-05-14T04:47:21.948Z,99102.84
2023-05-14T04:49:49.091Z,99100.53
2023-05-14T04:52:16.532Z,99104.13
2023-05-14T04:54:43.685Z,99108.02
2023-05-14T04:57:10.814Z,99104.11
2023-05-14T04:59:38.313Z,99099.20
2023-05-14T05:02:05.441Z,99100.06
2023-05-14T05:04:32.978Z,99099.66
2023-05-14T05:07:00.599Z,99102.77
2023-05-14T05:09:27.744Z,99103.16
2023-05-14T05:11:55.144Z,99104.60
2023-05-14T05:14:22.606Z,99103.83
2023-05-14T05:16:50.890Z,99101.27
2023-05-14T05:19:19.726Z,99101.85
2023-05-14T05:21:49.585Z,99094.59
2023-05-14T05:24:16.669Z,99090.11
2023-05-14T05:26:43.820Z,99089.09
2023-05-14T05:29:11.041Z,99088.95
2023-05-14T05:31:38.535Z,99087.70
2023-05-14T05:34:05.744Z,99087.00
2023-05-14T05:36:34.139Z,99085.58
2023-05-14T05:39:01.265Z,99077.50
2023-05-14T05:41:29.702Z,99075.82
2023-05-14T05:43:56.919Z,99071.55
2023-05-14T05:46:24.099Z,99068.35
2023-05-14T05:48:52.889Z,99066.00
2023-05-14T05:51:20.203Z,99065.15
2023-05-14T05:53:47.320Z,99066.19
2023-05-14T05:56:14.842Z,99063.53
2023-05-14T05:58:41.960Z,99063.76
2023-05-14T06:01:09.076Z,99068.45
2023-05-14T06:03:36.616Z,99067.34
2023-05-14T06:06:04.211Z,99073.02
2023-05-14T06:08:31.502Z,99074.47
2023-05-14T06:10:58.812Z,99075.92
2023-05-14T06:13:25.976Z,99073.64
2023-05-14T06:15:53.124Z,99075.77
2023-05-14T06:18:20.898Z,99072.89
2023-05-14T06:20:48.259Z,99072.83
2023-05-14T06:23:15.387Z,99074.84
2023-05-14T06:25:42.663Z,99069.15
2023-05-14T06:28:09.862Z,99069.43
2023-05-14T06:30:37.099Z,99068.35
2023-05-14T06:33:04.547Z,99065.81
2023-05-14T06:35:32.360Z,99068.86
2023-05-14T06:37:59.556Z,99068.14
2023-05-14T06:40:26.797Z,99070.48
2023-05-14T06:42:54.271Z,99070.19
2023-05-14T06:45:21.398Z,99071.70
2023-05-14T06:47:48.587Z,99072.64
2023-05-14T06:50:16.038Z,99068.27
2023-05-14T06:52:44.520Z,99064.27
2023-05-14T06:55:11.639Z,99063.55
2023-05-14T06:57:40.688Z,99060.56
2023-05-14T07:00:08.729Z,99056.27
2023-05-14T07:02:36.022Z,99052.81
2023-05-14T07:05:03.758Z,99053.19
2023-05-14T07:07:31.145Z,99055.96
2023-05-14T07:09:58.294Z,99061.20
2023-05-14T07:12:25.842Z,99059.55
2023-05-14T07:14:53.119Z,99064.85
2023-05-14T07:17:20.352Z,99064.33
2023-05-14T07:19:47.852Z,99067.11
2023-05-14T07:22:15.295Z,99062.99
2023-05-14T07:24:43.082Z,99062.63
2023-05-14T07:27:12.100Z,99065.80
2023-05-14T07:29:39.177Z,99066.73
2023-05-14T07:32:06.279Z,99072.32
2023-05-14T07:34:33.865Z,99072.85
2023-05-14T07:37:01.429Z,99070.11
2023-05-14T07:39:28.491Z,99074.17
2023-05-14T07:41:55.983Z,99073.34
2023-05-14T07:44:23.432Z,99076.24
2023-05-14T07:46:50.549Z,99077.17
2023-05-14T07:49:18.106Z,99076.97
2023-05-14T07:51:45.211Z,99077.23
2023-05-14T07:54:12.808Z,99076.30
2023-05-14T07:56:40.037Z,99072.96
2023-05-14T07:59:07.156Z,99073.37
2023-05-14T08:01:34.312Z,99078.45
2023-05-14T08:04:04.580Z,99077.00
2023-05-14T08:06:32.022Z,99073.90
2023-05-14T08:08:59.860Z,99072.30
2023-05-14T08:11:27.024Z,99071.04
2023-05-14T08:13:54.139Z,99071.23
2023-05-14T08:16:21.684Z,99066.33
2023-05-14T08:18:49.016Z,99063.45
2023-05-14T08:21:17.648Z,99066.21
2023-05-14T08:23:45.465Z,99065.17
2023-05-14T08:26:13.054Z,99064.94
2023-05-14T08:28:40.269Z,99060.29
2023-05-14T08:31:08.136Z,99056.39
2023-05-14T08:33:35.683Z,99049.89
2023-05-14T08:36:03.508Z,99047.48
2023-05-14T08:38:31.079Z,99045.17
2023-05-14T08:40:59.389Z,99043.52
2023-05-14T08:43:32.970Z,99041.99
2023-05-14T08:46:01.594Z,99042.20
2023-05-14T08:48:33.150Z,99037.48
2023-05-14T08:51:01.039Z,99032.90
2023-05-14T08:53:28.644Z,99036.96
2023-05-14T08:55:56.110Z,99034.75
2023-05-14T08:58:26.266Z,99031.86
2023-05-14T09:00:53.351Z,99028.56
2023-05-14T09:03:22.733Z,99028.30
2023-05-14T09:05:51.764Z,99025.36
2023-05-14T09:08:19.725Z,99024.54
2023-05-14T09:10:47.159Z,99026.00
2023-05-14T09:13:14.729Z,99029.79
2023-05-14T09:15:41.959Z,99025.35
2023-05-14T09:18:09.862Z,99021.52
2023-05-14T09:20:38.861Z,99015.63
2023-05-14T09:23:06.062Z,99006.48
2023-05-14T09:25:33.787Z,99004.95
2023-05-14T09:28:07.368Z,98999.48
2023-05-14T09:30:36.555Z,98992.13
2023-05-14T09:33:09.873Z,98990.41
2023-05-14T09:35:39.897Z,98987.73
2023-05-14T09:38:12.974Z,98982.65
2023-05-14T09:40:40.296Z,98976.92
2023-05-14T09:43:09.009Z,98971.39
2023-05-14T09:45:36.477Z,98968.30
2023-05-14T09:48:04.029Z,98965.55
2023-05-14T09:50:41.302Z,98960.19
2023-05-14T09:53:09.298Z,98955.92
2023-05-14T09:55:38.154Z,98960.35
2023-05-14T09:58:05.849Z,98954.76
2023-05-14T10:00:34.479Z,98953.41
2023-05-14T10:03:06.494Z,98949.66
2023-05-14T10:05:36.338Z,98945.92
2023-05-14T10:08:13.019Z,98943.69
2023-05-14T10:10:40.687Z,98939.79
2023-05-14T10:13:14.438Z,98938.89
2023-05-14T10:15:59.951Z,98938.73
2023-05-14T10:18:31.153Z,98937.98
2023-05-14T10:21:06.246Z,98938.26
2023-05-14T10:23:37.690Z,98930.44
2023-05-14T10:26:06.230Z,98928.88
2023-05-14T10:28:34.376Z,98931.73
2023-05-14T10:31:03.446Z,98929.61
2023-05-14T10:33:45.543Z,98924.74
2023-05-14T10:36:12.736Z,98927.89
2023-05-14T10:38:40.277Z,98922.27
2023-05-14T10:41:21.172Z,98915.77
2023-05-14T10:43:49.791Z,98915.04
2023-05-14T10:46:17.589Z,98908.15
2023-05-14T10:48:45.027Z,98903.96
2023-05-14T10:51:12.543Z,98905.34
2023-05-14T10:53:42.409Z,98905.48
2023-05-14T10:56:13.400Z,98900.34
2023-05-14T10:58:48.351Z,98899.05
2023-05-14T11:01:15.487Z,98902.80
2023-05-14T11:03:45.529Z,98900.69
2023-05-14T11:06:15.568Z,98897.78
2023-05-14T11:08:44.106Z,98890.61
2023-05-14T11:11:12.196Z,98881.38
2023-05-14T11:13:41.058Z,98881.90
2023-05-14T11:18:41.487Z,98877.33
2023-05-14T11:21:08.731Z,98876.14
2023-05-14T11:23:36.031Z,98874.30
2023-05-14T11:26:03.527Z,98874.48
2023-05-14T11:28:31.503Z,98870.11
2023-05-14T11:30:58.777Z,98869.07
2023-05-14T11:33:27.487Z,98869.66
2023-05-14T11:35:54.589Z,98871.77
2023-05-14T11:38:22.236Z,98874.45
2023-05-14T11:40:53.655Z,98875.48
2023-05-14T11:43:23.310Z,98873.48
2023-05-14T11:45:52.149Z,98866.46
2023-05-14T11:48:20.026Z,98859.55
2023-05-14T11:50:52.438Z,98861.06
2023-05-14T11:53:24.925Z,98858.32
2023-05-14T11:55:54.140Z,98858.89
2023-05-14T11:58:21.783Z,98857.54
2023-05-14T12:00:55.248Z,98854.66
2023-05-14T12:03:25.868Z,98855.23
2023-05-14T12:05:56.999Z,98854.89
2023-05-14T12:08:31.201Z,98856.02
2023-05-14T12:11:00.202Z,98854.53
2023-05-14T12:13:29.753Z,98851.02
2023-05-14T12:16:00.293Z,98848.56
2023-05-14T12:18:30.584Z,98848.70
2023-05-14T12:21:05.512Z,98847.80
2023-05-14T12:23:32.998Z,98842.93
2023-05-14T12:26:08.236Z,98839.92
2023-05-14T12:28:42.788Z,98839.66
2023-05-14T12:31:10.456Z,98838.99
2023-05-14T12:33:37.586Z,98836.98
2023-05-14T12:36:20.737Z,98831.84
2023-05-14T12:38:50.593Z,98832.77
2023-05-14T12:41:18.009Z,98825.58
2023-05-14T12:43:49.273Z,98820.21
2023-05-14T12:46:16.921Z,98819.11
2023-05-14T12:48:44.056Z,98811.69
2023-05-14T12:51:11.289Z,98814.27
2023-05-14T12:53:40.884Z,98808.77
2023-05-14T12:56:08.462Z,98812.79
2023-05-14T12:58:35.678Z,98804.48
2023-05-14T13:01:03.267Z,98797.59
2023-05-14T13:03:31.247Z,98793.34
2023-05-14T13:06:00.159Z,98791.79
2023-05-14T13:08:27.884Z,98792.71
2023-05-14T13:10:55.782Z,98794.77
2023-05-14T13:13:23.464Z,98789.83
2023-05-14T13:15:52.554Z,98787.03
2023-05-14T13:18:20.251Z,98790.77
2023-05-14T13:20:47.520Z,98792.67
2023-05-14T13:23:15.256Z,98787.95
2023-05-14T13:25:42.475Z,98781.17
2023-05-14T13:28:09.693Z,98777.88
2023-05-14T13:30:37.938Z,98778.11
2023-05-14T13:33:05.690Z,98774.86
2023-05-14T13:35:34.223Z,98773.52
2023-05-14T13:38:01.526Z,98771.73
2023-05-14T13:40:28.636Z,98771.48
2023-05-14T13:42:56.035Z,98761.98
2023-05-14T13:45:23.302Z,98759.65
2023-05-14T13:47:51.617Z,98754.06
2023-05-14T13:50:19.348Z,98759.98
2023-05-14T13:52:46.436Z,98756.48
2023-05-14T13:55:13.732Z,98752.86
2023-05-14T13:57:42.786Z,98756.29
2023-05-14T14:00:11.376Z,98754.42
2023-05-14T14:02:38.472Z,98753.39
2023-05-14T14:05:06.211Z,98752.50
2023-05-14T14:07:33.775Z,98742.73
2023-05-14T14:10:01.916Z,98740.33
2023-05-14T14:12:29.239Z,98740.35
2023-05-14T14:14:56.833Z,98738.11
2023-05-14T14:17:23.924Z,98729.45
2023-05-14T14:19:51.314Z,98726.82
2023-05-14T14:22:18.719Z,98729.58
2023-05-14T14:24:46.993Z,98730.19
2023-05-14T14:27:14.137Z,98723.34
2023-05-14T14:29:41.469Z,98717.36
2023-05-14T14:32:08.839Z,98718.80
2023-05-14T14:34:36.194Z,98716.94
2023-05-14T14:37:03.791Z,98720.01
2023-05-14T14:39:31.246Z,98718.34
2023-05-14T14:41:58.321Z,98712.79
2023-05-14T14:44:25.520Z,98712.89
2023-05-14T14:46:52.974Z,98716.58
2023-05-14T14:49:20.306Z,98712.81
2023-05-14T14:51:47.481Z,98712.06
2023-05-14T14:54:15.097Z,98705.45
2023-05-14T14:56:43.019Z,98698.52
2023-05-14T14:59:10.217Z,98699.06
2023-05-14T15:01:39.698Z,98698.16
2023-05-14T15:04:07.398Z,98695.79
2023-05-14T15:06:34.702Z,98693.10
2023-05-14T15:09:03.100Z,98689.38
2023-05-14T15:11:30.612Z,98688.09
2023-05-14T15:13:58.107Z,98681.45
2023-05-14T15:16:29.703Z,98679.33
2023-05-14T15:18:57.214Z,98677.89
2023-05-14T15:21:24.749Z,98682.51
2023-05-14T15:23:51.833Z,98681.36
2023-05-14T15:26:19.252Z,98681.90
2023-05-14T15:28:46.638Z,98683.20
2023-05-14T15:31:13.802Z,98680.17
2023-05-14T15:33:41.737Z,98683.59
2023-05-14T15:36:09.407Z,98683.64
2023-05-14T15:38:36.631Z,98684.11
2023-05-14T15:41:03.772Z,98684.01
2023-05-14T15:43:31.202Z,98684.73
2023-05-14T15:45:58.777Z,98681.18
2023-05-14T15:48:25.944Z,98680.77
2023-05-14T15:50:53.295Z,98683.27
2023-05-14T15:53:21.087Z,98680.90
2023-05-14T15:55:48.478Z,98679.91
2023-05-14T15:58:15.747Z,98677.17
2023-05-14T16:00:43.305Z,98677.92
2023-05-14T16:03:19.596Z,98677.34
2023-05-14T16:06:12.794Z,98677.98
2023-05-14T16:08:40.199Z,98678.46
2023-05-14T16:11:07.620Z,98673.77
2023-05-14T16:13:37.321Z,98671.04
2023-05-14T16:16:12.129Z,98676.30
2023-05-14T16:18:55.518Z,98667.66
2023-05-14T16:21:22.642Z,98667.00
2023-05-14T16:23:50.232Z,98667.73
2023-05-14T16:26:17.645Z,98667.35
2023-05-14T16:28:44.709Z,98661.59
2023-05-14T16:31:12.021Z,98661.98
2023-05-14T16:33:39.534Z,98663.38
2023-05-14T16:36:07.271Z,98658.81
2023-05-14T16:38:35.534Z,98659.74
2023-05-14T16:41:06.718Z,98658.69
2023-05-14T16:43:37.405Z,98659.85
2023-05-14T16:46:05.793Z,98657.76
2023-05-14T16:48:33.291Z,98656.48
2023-05-14T16:51:00.458Z,98659.05
2023-05-14T16:53:27.630Z,98656.17
2023-05-14T16:55:55.296Z,98656.63
2023-05-14T16:58:22.703Z,98658.98
2023-05-14T17:00:49.836Z,98659.71
2023-05-14T17:03:34.984Z,98656.42
2023-05-14T17:06:18.441Z,98649.55
2023-05-14T17:09:14.278Z,98647.20
2023-05-14T17:12:03.868Z,98644.46
2023-05-14T17:14:49.622Z,98642.11
2023-05-14T17:17:33.784Z,98642.20
2023-05-14T17:20:23.905Z,98642.10
2023-05-14T17:23:06.367Z,98642.76
2023-05-14T17:25:56.535Z,98645.71
2023-05-14T17:28:39.040Z,98645.27
2023-05-14T17:31:26.554Z,98648.64
2023-05-14T17:34:09.722Z,98648.64
2023-05-14T17:37:00.523Z,98643.75
2023-05-14T17:39:46.335Z,98641.64
2023-05-14T17:42:29.127Z,98636.13
2023-05-14T17:45:12.613Z,98627.73
2023-05-14T17:47:59.339Z,98630.39
2023-05-14T17:50:43.326Z,98636.21
2023-05-14T17:53:26.939Z,98636.50
2023-05-14T17:56:01.121Z,98638.48
2023-05-14T17:58:29.262Z,98637.30
2023-05-14T18:00:56.731Z,98634.76
2023-05-14T18:03:24.183Z,98636.10
2023-05-14T18:05:51.945Z,98634.97
2023-05-14T18:08:19.562Z,98635.63
2023-05-14T18:10:46.794Z,98629.35
2023-05-14T18:13:13.954Z,98626.44
2023-05-14T18:15:41.460Z,98624.68
2023-05-14T18:18:08.957Z,98626.90
2023-05-14T18:20:36.224Z,98626.39
2023-05-14T18:23:04.689Z,98622.73
2023-05-14T18:25:32.148Z,98622.77
2023-05-14T18:27:59.731Z,98618.10
2023-05-14T18:30:27.665Z,98618.01
2023-05-14T18:32:54.887Z,98617.69
2023-05-14T18:35:22.184Z,98619.10
2023-05-14T18:37:50.018Z,98618.28
2023-05-14T18:40:18.717Z,98614.65
2023-05-14T18:42:46.862Z,98613.48
2023-05-14T18:45:14.183Z,98616.66
2023-05-14T18:47:41.347Z,98620.02
2023-05-14T18:50:08.824Z,98617.08
2023-05-14T18:52:36.399Z,98619.34
2023-05-14T18:55:03.948Z,98618.40
2023-05-14T18:57:34.466Z,98617.29
2023-05-14T19:00:03.434Z,98616.92
2023-05-14T19:02:31.965Z,98615.77
2023-05-14T19:05:00.149Z,98616.70
2023-05-14T19:07:27.838Z,98616.05
2023-05-14T19:09:55.033Z,98617.48
2023-05-14T19:12:22.269Z,98616.29
2023-05-14T19:14:49.724Z,98612.14
2023-05-14T19:17:18.565Z,98607.29
2023-05-14T19:19:47.739Z,98605.73
2023-05-14T19:22:15.338Z,98601.60
2023-05-14T19:24:42.543Z,98605.64
2023-05-14T19:27:09.948Z,98609.83
2023-05-14T19:29:37.534Z,98608.41
2023-05-14T19:32:05.677Z,98604.92
2023-05-14T19:34:33.354Z,98599.84
2023-05-14T19:37:04.389Z,98597.65
2023-05-14T19:39:32.009Z,98597.99
2023-05-14T19:41:59.820Z,98597.14
2023-05-14T19:44:27.272Z,98594.70
2023-05-14T19:46:54.649Z,98591.42
2023-05-14T19:49:22.136Z,98594.81
2023-05-14T19:51:50.804Z,98591.05
2023-05-14T19:54:17.958Z,98590.77
2023-05-14T19:56:45.418Z,98588.60
2023-05-14T19:59:12.486Z,98589.48
2023-05-14T20:01:40.027Z,98589.33
2023-05-14T20:04:08.203Z,98584.24
2023-05-14T20:06:36.527Z,98581.38
2023-05-14T20:09:05.481Z,98578.41
2023-05-14T20:11:32.984Z,98572.98
2023-05-14T20:14:00.502Z,98569.48
2023-05-14T20:16:28.172Z,98566.70
2023-05-14T20:18:55.526Z,98563.97
2023-05-14T20:21:23.372Z,98560.46
2023-05-14T20:23:50.581Z,98556.77
2023-05-14T20:26:17.652Z,98551.50
2023-05-14T20:28:46.189Z,98549.55
2023-05-14T20:31:13.589Z,98548.52
2023-05-14T20:33:40.766Z,98540.48
2023-05-14T20:36:08.477Z,98539.65
2023-05-14T20:38:36.844Z,98533.44
2023-05-14T20:41:04.205Z,98530.58
2023-05-14T20:43:31.958Z,98527.05
2023-05-14T20:46:00.273Z,98525.83
2023-05-14T20:48:27.555Z,98519.95
2023-05-14T20:50:54.785Z,98510.70
2023-05-14T20:53:22.506Z,98498.94
2023-05-14T20:55:49.727Z,98494.80
2023-05-14T20:58:17.209Z,98488.60
2023-05-14T21:00:44.833Z,98487.69
2023-05-14T21:03:12.603Z,98487.40
2023-05-14T21:05:41.658Z,98482.08
2023-05-14T21:08:09.394Z,98476.48
2023-05-14T21:10:36.589Z,98480.61
2023-05-14T21:13:03.787Z,98478.39
2023-05-14T21:15:31.206Z,98474.44
2023-05-14T21:17:58.560Z,98470.67
2023-05-14T21:20:28.824Z,98467.30
2023-05-14T21:22:56.272Z,98463.74
2023-05-14T21:25:23.723Z,98461.17
2023-05-14T21:27:51.442Z,98466.09
2023-05-14T21:30:20.301Z,98466.31
2023-05-14T21:32:50.445Z,98465.80
2023-05-14T21:35:17.679Z,98465.27
2023-05-14T21:37:45.341Z,98465.25
2023-05-14T21:40:12.742Z,98459.36
2023-05-14T21:42:40.426Z,98458.03
2023-05-14T21:45:08.233Z,98454.87
2023-05-14T21:47:36.474Z,98455.37
2023-05-14T21:50:05.378Z,98450.66
2023-05-14T21:52:33.251Z,98447.48
2023-05-14T21:55:00.427Z,98453.59
2023-05-14T21:57:28.642Z,98454.30
2023-05-14T21:59:57.742Z,98454.13
2023-05-14T22:02:25.036Z,98462.70
2023-05-14T22:04:52.291Z,98472.90
2023-05-14T22:07:19.853Z,98480.15
2023-05-14T22:09:47.018Z,98473.37
2023-05-14T22:12:14.254Z,98474.63
2023-05-14T22:14:41.798Z,98475.13
2023-05-14T22:17:09.379Z,98478.30
2023-05-14T22:19:36.549Z,98480.39
2023-05-14T22:22:04.213Z,98477.60
2023-05-14T22:24:31.398Z,98464.88
2023-05-14T22:26:58.652Z,98461.41
2023-05-14T22:29:26.219Z,98461.52
2023-05-14T22:31:53.541Z,98459.89
2023-05-14T22:34:21.018Z,98453.84
2023-05-14T22:36:48.493Z,98449.16
2023-05-14T22:39:15.748Z,98446.56
2023-05-14T22:41:42.927Z,98444.53
2023-05-14T22:44:10.434Z,98440.27
2023-05-14T22:46:37.956Z,98438.25
2023-05-14T22:49:05.662Z,98436.71
2023-05-14T22:51:32.839Z,98433.95
2023-05-14T22:54:00.018Z,98429.85
2023-05-14T22:56:27.881Z,98431.14
2023-05-14T22:58:55.701Z,98426.98
2023-05-14T23:01:22.954Z,98424.18
2023-05-14T23:03:50.674Z,98420.48
2023-05-14T23:06:18.025Z,98418.17
2023-05-14T23:08:46.020Z,98414.88
2023-05-14T23:11:14.016Z,98410.85
2023-05-14T23:13:41.194Z,98407.16
2023-05-14T23:16:08.375Z,98403.70
2023-05-14T23:18:35.853Z,98396.45
2023-05-14T23:21:03.592Z,98389.77
2023-05-14T23:23:30.886Z,98385.63
2023-05-14T23:25:58.113Z,98382.54
2023-05-14T23:28:26.016Z,98378.21
2023-05-14T23:30:53.178Z,98373.36
2023-05-14T23:33:20.307Z,98371.46
2023-05-14T23:35:48.384Z,98369.39
2023-05-14T23:38:16.436Z,98361.75
2023-05-14T23:40:43.577Z,98361.54
2023-05-14T23:43:10.736Z,98357.85
2023-05-14T23:45:39.049Z,98356.98
2023-05-14T23:48:06.268Z,98358.72
2023-05-14T23:50:33.453Z,98349.08
2023-05-14T23:53:00.910Z,98346.13
2023-05-14T23:55:28.429Z,98342.66
2023-05-14T23:57:55.592Z,98341.06
